Davenport, IA

5:23 PM CST on December 03, 2016 (GMT -0600)
Ridgeview | | Change Station
Active Advisory: Winter Weather Advisory

Elev 735 ft 41.59 °N, 90.60 °W | Updated 52 seconds ago

Clear
Clear
35.1 °F
Feels Like 35 °F
N
0.0
Wind Variable Wind from South

Today
High -- | Low -- °F
--% Chance of Precip.
Yesterday
High -- | Low -- °F
Precip. -- in
Pressure 30.30 in
Visibility 10.0 miles
Clouds Clear
Windchill 35 °F
Dew Point 31 °F
Humidity 85%
Rainfall 0.00 in
Snow Depth Not available.
7:12 AM 4:32 PM
Waxing Crescent, 18% visible
METAR KDVN 032252Z AUTO 00000KT 10SM CLR 02/M03 A3028 RMK AO2 SLP260 T00171033
Pressure 30.30 in
Visibility 10.0 miles
Clouds Clear
Windchill 35 °F
Dew Point 31 °F
Humidity 85%
Rainfall 0.00 in
Snow Depth Not available.
7:12 AM 4:32 PM
Waxing Crescent, 18% visible
METAR KDVN 032252Z AUTO 00000KT 10SM CLR 02/M03 A3028 RMK AO2 SLP260 T00171033

10-Day Weather Forecast

Almanac

Astronomy

Dec. 03, 2016 Rise Set
Actual Time
Civil Twilight
Nautical Twilight
Astronomical Twilight
Moon
Length of Visible Light
Length of Day
Tomorrow will be .
, % of the Moon is Illuminated

Today's Extremes

State Highs State Lows

Community

WunderPhotos

Upload Photos

1,955,540 photos uploaded!

WunderBlog® & News

Nearby

Air Quality

  Air Quality AQ Index Pollutant
Not available.

Snow Depth

Station Depth Elevation

Earthquake Activity

City Distance Mag. Time & Date
Minimum magnitude displayed is 2.5.

Coastal Water Temperatures

Place Temperature

Stations

Nearby Weather Stations

Station Location Temp. Windchill Dew Point Humidity Wind Precip. Elev Updated Type
                   

Watches & Warnings

Winter Weather Advisory
Issued: 3:10 PM CST Dec. 3, 2016 – National Weather Service

... Winter Weather Advisory in effect from 2 am to 3 PM CST
Sunday...

The National Weather Service in Quad Cities has issued a Winter
Weather Advisory for snow... which is in effect from 2 am to 3 PM
CST Sunday.

* Timing... snow will begin around midnight in Iowa, and in
northern Illinois after 3 am. Snow will continue through late
morning and early afternoon Sunday.

* Snow accumulations... 2 to 4 inches.

* Wind... south 5 to 10 mph.

* Temperatures... in the lower 30s.

* Impacts... light to moderate wet snow will create slippery travel
conditions over the area, and will reduce visibility to under 1
mile at times.

Precautionary/preparedness actions...

A Winter Weather Advisory for snow means that periods of snow
will cause primarily travel difficulties. Be prepared for snow
covered roads and limited visibilities, and use caution while
driving.